Blairstown, Iowa
Current Conditions -  °F | °C
As of 8:52 AM on Saturday 20 Dec 2014 (Local Time) from KCID Reporting Station
Haze Haze  
Wind Chill: 24°   Ceiling: 700
Heat Index: 30°   Visibility: 3mi
Dew Point: 28°   Wind: 6mph
Humidity: 92%   Direction: 150°SSE
Pressure: 30.21"   Gusts: NA
Location:  41.91°N, 92.08°W
Report Text: KCID 201452Z 15005KT 3SM BR OVC007 M01/M02 A3021 RMK AO2 SLP240 T10111022 52005 $
Loading
Personal Weather Stations






























Interactive Weather Map New forecast layout! Learn more

10-Day Weather Forecast

Advertisements
Track Severe Weather on mobile